Terminal Aerodrome Forecast
Issued by NWS Twin Cities, MN

Home | Current Version | Previous Version | Text Only | Print | Product List | Glossary On
Versions: 1 2 3 4 5 6 7 8 9 10 11 12 13 14 15 16 17 18 19 20 21 22 23 24 25
731
FTUS43 KMPX 230824 AAA
TAFMSP
TAF AMD
KMSP 230824Z 2308/2412 36013KT P6SM BKN027
     FM230845 34012KT P6SM SCT250
     FM231600 33007KT P6SM SCT020
     FM232300 28004KT P6SM BKN100
     FM240900 25003KT P6SM SCT015 OVC100=

USA.gov is the U.S. government's official web portal to all federal, state and local government web resources and services.